createdAt,value
2018-01-23T00:01:51.836Z,0.00
2018-01-23T00:02:51.313Z,0.00
2018-01-23T00:04:47.446Z,0.00
2018-01-23T00:06:58.212Z,0.00
2018-01-23T00:08:01.721Z,0.00
2018-01-23T00:09:50.230Z,0.00
2018-01-23T00:10:50.137Z,0.00
2018-01-23T00:12:44.609Z,0.00
2018-01-23T00:13:45.085Z,0.00
2018-01-23T00:15:38.070Z,0.00
2018-01-23T00:16:37.170Z,0.00
2018-01-23T00:18:29.047Z,0.00
2018-01-23T00:19:29.012Z,0.00
2018-01-23T00:21:22.007Z,0.00
2018-01-23T00:22:22.942Z,0.00
2018-01-23T00:24:15.935Z,0.00
2018-01-23T00:25:14.924Z,0.00
2018-01-23T00:27:08.450Z,0.00
2018-01-23T00:28:08.885Z,0.00
2018-01-23T00:30:03.341Z,0.00
2018-01-23T00:31:01.863Z,0.00
2018-01-23T00:32:54.823Z,0.00
2018-01-23T00:33:53.801Z,0.00
2018-01-23T00:35:47.274Z,0.00
2018-01-23T00:36:46.779Z,0.00
2018-01-23T00:38:40.209Z,0.00
2018-01-23T00:39:40.717Z,0.00
2018-01-23T00:41:32.765Z,0.00
2018-01-23T00:42:32.681Z,0.00
2018-01-23T00:44:27.611Z,0.00
2018-01-23T00:45:25.652Z,0.00
2018-01-23T00:47:18.593Z,0.00
2018-01-23T00:48:18.586Z,0.00
2018-01-23T00:50:11.587Z,0.00
2018-01-23T00:51:11.542Z,0.00
2018-01-23T00:53:04.509Z,0.00
2018-01-23T00:54:04.493Z,0.00
2018-01-23T00:55:57.525Z,0.00
2018-01-23T00:56:59.439Z,0.00
2018-01-23T00:58:50.935Z,0.00
2018-01-23T00:59:50.450Z,0.00
2018-01-23T01:01:43.395Z,0.00
2018-01-23T01:02:43.398Z,0.00
2018-01-23T01:04:37.446Z,0.00
2018-01-23T01:05:36.411Z,0.00
2018-01-23T01:07:30.300Z,0.00
2018-01-23T01:08:29.302Z,0.00
2018-01-23T01:10:24.262Z,0.00
2018-01-23T01:11:22.280Z,0.00
2018-01-23T01:13:18.273Z,0.00
2018-01-23T01:14:17.255Z,0.00
2018-01-23T01:16:09.268Z,0.00
2018-01-23T01:17:08.188Z,0.00
2018-01-23T01:19:03.396Z,0.00
2018-01-23T01:20:01.142Z,0.00
2018-01-23T01:21:55.100Z,0.00
2018-01-23T01:22:56.066Z,0.00
2018-01-23T01:24:48.139Z,0.00
2018-01-23T01:25:47.104Z,0.00
2018-01-23T01:27:41.011Z,0.00
2018-01-23T01:28:40.071Z,0.00
2018-01-23T01:30:33.481Z,0.00
2018-01-23T01:31:32.969Z,0.00
2018-01-23T01:33:25.917Z,0.00
2018-01-23T01:34:25.908Z,0.00
2018-01-23T01:36:18.932Z,4.00
2018-01-23T01:37:20.853Z,0.00
2018-01-23T01:39:11.829Z,0.00
2018-01-23T01:40:11.816Z,0.00
2018-01-23T01:42:05.275Z,0.00
2018-01-23T01:43:07.775Z,0.00
2018-01-23T01:44:57.787Z,0.00
2018-01-23T01:45:58.728Z,0.00
2018-01-23T01:47:52.879Z,0.00
2018-01-23T01:48:50.682Z,0.00
2018-01-23T01:50:56.149Z,0.00
2018-01-23T01:51:56.170Z,0.00
2018-01-23T01:53:49.263Z,0.00
2018-01-23T01:54:48.290Z,0.00
2018-01-23T01:56:43.734Z,0.00
2018-01-23T01:57:41.269Z,0.00
2018-01-23T01:59:34.291Z,0.00
2018-01-23T02:00:35.178Z,0.00
2018-01-23T02:02:28.176Z,0.00
2018-01-23T02:03:27.162Z,0.00
2018-01-23T02:05:21.587Z,0.00
2018-01-23T02:06:21.091Z,0.00
2018-01-23T02:08:20.555Z,0.00
2018-01-23T02:09:15.081Z,0.00
2018-01-23T02:11:07.545Z,0.00
2018-01-23T02:12:06.050Z,0.00
2018-01-23T02:13:59.544Z,0.00
2018-01-23T02:14:58.974Z,0.00
2018-01-23T02:16:53.926Z,0.00
2018-01-23T02:17:51.955Z,0.00
2018-01-23T02:19:48.395Z,0.00
2018-01-23T02:20:44.919Z,0.00
2018-01-23T02:22:38.931Z,0.00
2018-01-23T02:23:38.671Z,0.00
2018-01-23T02:25:32.179Z,0.00
2018-01-23T02:26:31.627Z,0.00
2018-01-23T02:28:24.712Z,0.00
2018-01-23T02:29:24.585Z,0.00
2018-01-23T02:31:17.767Z,0.00
2018-01-23T02:32:17.558Z,0.00
2018-01-23T02:34:11.046Z,0.00
2018-01-23T02:35:11.503Z,0.00
2018-01-23T02:37:04.210Z,0.00
2018-01-23T02:38:04.492Z,0.00
2018-01-23T02:39:57.930Z,0.00
2018-01-23T02:40:57.423Z,0.00
2018-01-23T02:42:49.383Z,0.00
2018-01-23T02:43:49.368Z,0.00
2018-01-23T02:45:42.842Z,0.00
2018-01-23T02:46:42.346Z,0.00
2018-01-23T02:48:35.283Z,0.00
2018-01-23T02:49:35.271Z,0.00
2018-01-23T02:51:28.375Z,0.00
2018-01-23T02:52:28.270Z,0.00
2018-01-23T02:54:21.233Z,0.00
2018-01-23T02:55:21.214Z,0.00
2018-01-23T02:57:14.208Z,0.00
2018-01-23T02:58:14.147Z,0.00
2018-01-23T03:00:08.088Z,0.00
2018-01-23T03:01:08.094Z,0.00
2018-01-23T03:03:00.233Z,0.00
2018-01-23T03:04:00.063Z,0.00
2018-01-23T03:05:53.533Z,0.00
2018-01-23T03:06:54.032Z,0.00
2018-01-23T03:08:47.460Z,0.00
2018-01-23T03:09:47.954Z,0.00
2018-01-23T03:11:39.459Z,0.00
2018-01-23T03:12:38.949Z,0.00
2018-01-23T03:14:32.007Z,0.00
2018-01-23T03:15:32.906Z,0.00
2018-01-23T03:17:25.357Z,0.00
2018-01-23T03:18:24.888Z,0.00
2018-01-23T03:20:18.839Z,0.00
2018-01-23T03:21:19.811Z,0.00
2018-01-23T03:23:14.755Z,0.00
2018-01-23T03:24:10.801Z,0.00
2018-01-23T03:26:04.278Z,0.00
2018-01-23T03:27:03.718Z,0.00
2018-01-23T03:28:57.424Z,0.00
2018-01-23T03:29:56.682Z,0.00
2018-01-23T03:31:49.673Z,0.00
2018-01-23T03:32:50.612Z,0.00
2018-01-23T03:34:43.094Z,0.00
2018-01-23T03:35:42.585Z,0.00
2018-01-23T03:37:36.528Z,0.00
2018-01-23T03:38:35.547Z,0.00
2018-01-23T03:40:28.549Z,0.00
2018-01-23T03:41:28.521Z,0.00
2018-01-23T03:43:21.497Z,0.00
2018-01-23T03:44:21.511Z,0.00
2018-01-23T03:46:14.441Z,0.00
2018-01-23T03:47:14.411Z,0.00
2018-01-23T03:49:07.427Z,0.00
2018-01-23T03:50:07.378Z,0.00
2018-01-23T03:52:02.817Z,0.00
2018-01-23T03:53:00.347Z,0.00
2018-01-23T03:54:53.341Z,0.00
2018-01-23T03:55:54.304Z,0.00
2018-01-23T03:57:47.236Z,0.00
2018-01-23T03:58:46.241Z,0.00
2018-01-23T04:00:39.291Z,0.00
2018-01-23T04:01:39.216Z,0.00
2018-01-23T04:03:32.670Z,0.00
2018-01-23T04:04:32.183Z,0.00
2018-01-23T04:06:25.165Z,0.00
2018-01-23T04:07:26.101Z,0.00
2018-01-23T04:09:18.077Z,0.00
2018-01-23T04:10:18.102Z,0.00
2018-01-23T04:12:11.217Z,0.00
2018-01-23T04:13:11.034Z,0.00
2018-01-23T04:15:04.029Z,0.00
2018-01-23T04:16:03.998Z,0.00
2018-01-23T04:17:57.464Z,0.00
2018-01-23T04:18:57.940Z,0.00
2018-01-23T04:20:49.931Z,0.00
2018-01-23T04:21:49.911Z,0.00
2018-01-23T04:23:42.887Z,0.00
2018-01-23T04:24:42.881Z,0.00
2018-01-23T04:26:35.863Z,0.00
2018-01-23T04:27:35.828Z,0.00
2018-01-23T04:29:28.836Z,0.00
2018-01-23T04:31:43.223Z,0.00
2018-01-23T04:32:42.233Z,0.00
2018-01-23T04:34:35.649Z,0.00
2018-01-23T04:35:34.654Z,0.00
2018-01-23T04:37:28.597Z,0.00
2018-01-23T04:38:27.616Z,0.00
2018-01-23T04:40:22.569Z,0.00
2018-01-23T04:41:20.568Z,0.00
2018-01-23T04:43:14.075Z,0.00
2018-01-23T04:44:13.525Z,0.00
2018-01-23T04:46:07.476Z,4.00
2018-01-23T04:47:07.488Z,0.00
2018-01-23T04:48:59.473Z,0.00
2018-01-23T04:49:59.441Z,0.00
2018-01-23T04:51:52.494Z,0.00
2018-01-23T04:52:52.491Z,0.00
2018-01-23T04:54:45.439Z,0.00
2018-01-23T04:55:45.384Z,0.00
2018-01-23T04:57:38.387Z,0.00
2018-01-23T04:58:38.347Z,0.00
2018-01-23T05:00:33.963Z,0.00
2018-01-23T05:01:31.276Z,0.00
2018-01-23T05:03:25.352Z,0.00
2018-01-23T05:04:24.223Z,0.00
2018-01-23T05:06:19.192Z,0.00
2018-01-23T05:07:18.160Z,0.00
2018-01-23T05:09:10.643Z,0.00
2018-01-23T05:10:10.141Z,0.00
2018-01-23T05:12:04.133Z,0.00
2018-01-23T05:13:03.125Z,0.00
2018-01-23T05:14:56.610Z,0.00
2018-01-23T05:15:57.055Z,0.00
2018-01-23T05:17:49.526Z,4.00
2018-01-23T05:18:49.522Z,0.00
2018-01-23T05:20:43.005Z,0.00
2018-01-23T05:21:42.489Z,0.00
2018-01-23T05:23:36.432Z,0.00
2018-01-23T05:24:35.455Z,0.00
2018-01-23T05:26:28.442Z,0.00
2018-01-23T05:27:28.433Z,0.00
2018-01-23T05:29:21.360Z,0.00
2018-01-23T05:30:21.346Z,0.00
2018-01-23T05:32:14.837Z,0.00
2018-01-23T05:33:14.313Z,0.00
2018-01-23T05:35:07.769Z,0.00
2018-01-23T05:36:07.264Z,0.00
2018-01-23T05:38:00.256Z,0.00
2018-01-23T05:39:00.217Z,0.00
2018-01-23T05:40:53.183Z,0.00
2018-01-23T05:41:53.196Z,0.00
2018-01-23T05:43:46.169Z,0.00
2018-01-23T05:44:46.135Z,0.00
2018-01-23T05:46:39.105Z,0.00
2018-01-23T05:47:39.094Z,0.00
2018-01-23T05:49:32.259Z,0.00
2018-01-23T05:50:33.034Z,0.00
2018-01-23T05:52:25.056Z,0.00
2018-01-23T05:53:25.010Z,0.00
2018-01-23T05:55:18.975Z,4.00
2018-01-23T05:56:17.963Z,0.00
2018-01-23T05:58:11.292Z,4.00
2018-01-23T05:59:10.955Z,0.00
2018-01-23T06:01:06.377Z,0.00
2018-01-23T06:02:03.895Z,0.00
2018-01-23T06:03:57.944Z,0.00
2018-01-23T06:04:56.962Z,0.00
2018-01-23T06:06:56.807Z,0.00
2018-01-23T06:07:49.807Z,0.00
2018-01-23T06:09:45.838Z,0.00
2018-01-23T06:10:42.796Z,0.00
2018-01-23T06:12:36.642Z,4.00
2018-01-23T06:13:37.711Z,0.00
2018-01-23T06:15:29.209Z,0.00
2018-01-23T06:16:28.754Z,0.00
2018-01-23T06:18:21.961Z,0.00
2018-01-23T06:19:23.749Z,4.00
2018-01-23T06:21:15.200Z,0.00
2018-01-23T06:22:14.596Z,0.00
2018-01-23T06:24:08.664Z,4.00
2018-01-23T06:25:08.655Z,0.00
2018-01-23T06:27:01.015Z,4.00
2018-01-23T06:28:01.555Z,0.00
2018-01-23T06:29:54.614Z,4.00
2018-01-23T06:30:53.468Z,0.00
2018-01-23T06:32:46.996Z,0.00
2018-01-23T06:33:46.407Z,0.00
2018-01-23T06:35:39.396Z,0.00
2018-01-23T06:36:40.492Z,0.00
2018-01-23T06:38:33.099Z,0.00
2018-01-23T06:39:32.396Z,0.00
2018-01-23T06:41:27.918Z,0.00
2018-01-23T06:42:26.720Z,0.00
2018-01-23T06:44:21.384Z,4.00
2018-01-23T06:45:20.682Z,0.00
2018-01-23T06:47:16.610Z,4.00
2018-01-23T06:48:15.436Z,0.00
2018-01-23T06:50:22.471Z,4.00
2018-01-23T06:51:07.863Z,0.00
2018-01-23T06:52:59.840Z,0.00
2018-01-23T06:53:59.767Z,0.00
2018-01-23T06:55:52.725Z,4.00
2018-01-23T06:56:52.727Z,4.00
2018-01-23T06:58:45.712Z,0.00
2018-01-23T06:59:45.684Z,4.00
2018-01-23T07:01:38.638Z,4.00
2018-01-23T07:02:38.642Z,4.00
2018-01-23T07:03:38.655Z,4.00
2018-01-23T07:04:38.650Z,8.00
2018-01-23T07:05:38.649Z,8.00
2018-01-23T07:06:38.654Z,8.00
2018-01-23T07:07:38.662Z,8.00
2018-01-23T07:08:38.658Z,12.00
2018-01-23T07:09:38.660Z,12.00
2018-01-23T07:10:38.669Z,12.00
2018-01-23T07:11:38.672Z,16.00
2018-01-23T07:12:38.667Z,16.00
2018-01-23T07:13:38.673Z,16.00
2018-01-23T07:14:38.680Z,20.00
2018-01-23T07:15:38.688Z,24.00
2018-01-23T07:16:38.684Z,28.00
2018-01-23T07:17:38.687Z,28.00
2018-01-23T07:18:38.692Z,32.00
2018-01-23T07:19:38.694Z,32.00
2018-01-23T07:20:38.741Z,36.00
2018-01-23T07:21:38.698Z,40.00
2018-01-23T07:22:38.708Z,48.00
2018-01-23T07:23:38.711Z,48.00
2018-01-23T07:24:38.733Z,56.00
2018-01-23T07:25:38.911Z,60.00
2018-01-23T07:26:38.715Z,60.00
2018-01-23T07:27:38.718Z,68.00
2018-01-23T07:28:38.722Z,76.00
2018-01-23T07:29:38.726Z,80.00
2018-01-23T07:30:40.232Z,88.00
2018-01-23T07:31:39.230Z,96.00
2018-01-23T07:32:38.736Z,108.00
2018-01-23T07:33:40.114Z,116.00
2018-01-23T07:34:40.392Z,120.00
2018-01-23T07:35:38.739Z,124.00
2018-01-23T07:36:38.745Z,132.00
2018-01-23T07:37:38.752Z,144.00
2018-01-23T07:38:38.750Z,152.00
2018-01-23T07:39:38.748Z,160.00
2018-01-23T07:40:38.755Z,168.00
2018-01-23T07:41:38.759Z,180.00
2018-01-23T07:42:38.761Z,184.00
2018-01-23T07:43:38.771Z,188.00
2018-01-23T07:44:38.770Z,192.00
2018-01-23T07:45:38.774Z,192.00
2018-01-23T07:46:38.777Z,204.00
2018-01-23T07:47:38.800Z,220.00
2018-01-23T07:48:38.781Z,228.00
2018-01-23T07:49:38.788Z,236.00
2018-01-23T07:50:38.789Z,248.00
2018-01-23T07:51:38.793Z,252.00
2018-01-23T07:52:38.799Z,256.00
2018-01-23T07:53:38.806Z,260.00
2018-01-23T07:54:38.798Z,268.00
2018-01-23T07:55:38.845Z,280.00
2018-01-23T07:56:38.807Z,296.00
2018-01-23T07:57:38.811Z,304.00
2018-01-23T07:58:38.816Z,320.00
2018-01-23T07:59:38.822Z,320.00
2018-01-23T08:00:38.821Z,316.00
2018-01-23T08:01:38.826Z,308.00
2018-01-23T08:02:38.832Z,308.00
2018-01-23T08:03:38.828Z,308.00
2018-01-23T08:04:38.838Z,312.00
2018-01-23T08:05:38.837Z,316.00
2018-01-23T08:06:38.844Z,332.00
2018-01-23T08:07:38.843Z,352.00
2018-01-23T08:08:38.850Z,380.00
2018-01-23T08:09:38.849Z,396.00
2018-01-23T08:10:38.857Z,404.00
2018-01-23T08:11:38.859Z,404.00
2018-01-23T08:12:38.862Z,412.00
2018-01-23T08:13:38.915Z,416.00
2018-01-23T08:14:38.864Z,412.00
2018-01-23T08:15:38.906Z,420.00
2018-01-23T08:16:38.875Z,432.00
2018-01-23T08:17:38.879Z,428.00
2018-01-23T08:18:38.879Z,424.00
2018-01-23T08:19:38.881Z,424.00
2018-01-23T08:20:38.889Z,432.00
2018-01-23T08:21:38.892Z,452.00
2018-01-23T08:22:38.891Z,440.00
2018-01-23T08:23:38.894Z,440.00
2018-01-23T08:24:38.902Z,456.00
2018-01-23T08:25:38.906Z,472.00
2018-01-23T08:26:38.904Z,492.00
2018-01-23T08:27:38.903Z,492.00
2018-01-23T08:28:38.910Z,492.00
2018-01-23T08:29:38.914Z,492.00
2018-01-23T08:30:38.923Z,496.00
2018-01-23T08:31:38.918Z,512.00
2018-01-23T08:32:38.924Z,524.00
2018-01-23T08:33:38.930Z,524.00
2018-01-23T08:34:38.939Z,540.00
2018-01-23T08:35:38.935Z,548.00
2018-01-23T08:36:38.938Z,528.00
2018-01-23T08:37:38.945Z,548.00
2018-01-23T08:38:38.942Z,560.00
2018-01-23T08:39:38.952Z,572.00
2018-01-23T08:40:38.958Z,572.00
2018-01-23T08:41:38.957Z,568.00
2018-01-23T08:42:38.956Z,584.00
2018-01-23T08:43:38.964Z,608.00
2018-01-23T08:44:38.967Z,636.00
2018-01-23T08:45:38.972Z,640.00
2018-01-23T08:46:38.979Z,636.00
2018-01-23T08:47:38.979Z,632.00
2018-01-23T08:48:38.979Z,664.00
2018-01-23T08:49:38.985Z,652.00
2018-01-23T08:50:38.986Z,668.00
2018-01-23T08:51:38.994Z,680.00
2018-01-23T08:52:38.993Z,680.00
2018-01-23T08:53:39.008Z,688.00
2018-01-23T08:54:38.998Z,692.00
2018-01-23T08:55:39.004Z,724.00
2018-01-23T08:56:39.005Z,760.00
2018-01-23T08:57:39.010Z,776.00
2018-01-23T08:58:39.009Z,780.00
2018-01-23T08:59:39.654Z,792.00
2018-01-23T09:00:39.019Z,792.00
2018-01-23T09:01:39.026Z,796.00
2018-01-23T09:02:39.030Z,796.00
2018-01-23T09:03:39.029Z,784.00
2018-01-23T09:04:39.036Z,752.00
2018-01-23T09:05:39.035Z,732.00
2018-01-23T09:06:39.049Z,736.00
2018-01-23T09:07:39.038Z,756.00
2018-01-23T09:08:39.052Z,780.00
2018-01-23T09:09:39.051Z,808.00
2018-01-23T09:10:39.059Z,824.00
2018-01-23T09:11:39.057Z,852.00
2018-01-23T09:12:39.065Z,856.00
2018-01-23T09:13:39.066Z,880.00
2018-01-23T09:14:39.073Z,912.00
2018-01-23T09:15:39.073Z,936.00
2018-01-23T09:16:39.075Z,964.00
2018-01-23T09:17:39.079Z,984.00
2018-01-23T09:18:39.086Z,1004.00
2018-01-23T09:19:39.096Z,1020.00
2018-01-23T09:20:39.090Z,1028.00
2018-01-23T09:21:39.097Z,1028.00
2018-01-23T09:22:39.101Z,1028.00
2018-01-23T09:23:39.100Z,1020.00
2018-01-23T09:24:39.108Z,1020.00
2018-01-23T09:25:39.113Z,1012.00
2018-01-23T09:26:39.111Z,988.00
2018-01-23T09:27:39.115Z,948.00
2018-01-23T09:28:39.122Z,912.00
2018-01-23T09:29:39.126Z,896.00
2018-01-23T09:30:39.123Z,908.00
2018-01-23T09:31:39.130Z,968.00
2018-01-23T09:32:39.139Z,1020.00
2018-01-23T09:33:39.138Z,1088.00
2018-01-23T09:34:39.144Z,1164.00
2018-01-23T09:35:39.145Z,1216.00
2018-01-23T09:36:39.340Z,1200.00
2018-01-23T09:37:39.153Z,1160.00
2018-01-23T09:38:39.158Z,1188.00
2018-01-23T09:39:39.159Z,1216.00
2018-01-23T09:40:39.164Z,1272.00
2018-01-23T09:41:39.166Z,1316.00
2018-01-23T09:42:39.174Z,1300.00
2018-01-23T09:43:39.173Z,1256.00
2018-01-23T09:44:39.182Z,1212.00
2018-01-23T09:45:39.182Z,1248.00
2018-01-23T09:46:39.190Z,1340.00
2018-01-23T09:47:39.193Z,1368.00
2018-01-23T09:48:39.197Z,1452.00
2018-01-23T09:49:39.196Z,1460.00
2018-01-23T09:50:39.205Z,1508.00
2018-01-23T09:51:39.208Z,1488.00
2018-01-23T09:52:39.207Z,1444.00
2018-01-23T09:53:39.211Z,1428.00
2018-01-23T09:54:39.217Z,1452.00
2018-01-23T09:55:39.221Z,1492.00
2018-01-23T09:56:39.220Z,1500.00
2018-01-23T09:57:39.226Z,1508.00
2018-01-23T09:58:39.236Z,1500.00
2018-01-23T09:59:39.235Z,1472.00
2018-01-23T10:00:39.237Z,1492.00
2018-01-23T10:01:39.242Z,1424.00
2018-01-23T10:02:39.248Z,1428.00
2018-01-23T10:03:39.253Z,1392.00
2018-01-23T10:04:39.253Z,1376.00
2018-01-23T10:05:39.257Z,1424.00
2018-01-23T10:06:39.285Z,1476.00
2018-01-23T10:07:39.264Z,1476.00
2018-01-23T10:08:39.270Z,1464.00
2018-01-23T10:09:39.271Z,1456.00
2018-01-23T10:10:39.279Z,1416.00
2018-01-23T10:11:39.283Z,1364.00
2018-01-23T10:12:39.284Z,1296.00
2018-01-23T10:13:39.291Z,1248.00
2018-01-23T10:14:39.294Z,1224.00
2018-01-23T10:15:39.297Z,1220.00
2018-01-23T10:16:39.297Z,1244.00
2018-01-23T10:17:39.303Z,1288.00
2018-01-23T10:18:39.309Z,1364.00
2018-01-23T10:19:39.314Z,1456.00
2018-01-23T10:20:39.315Z,1560.00
2018-01-23T10:21:39.322Z,1644.00
2018-01-23T10:22:39.323Z,1688.00
2018-01-23T10:23:39.327Z,1704.00
2018-01-23T10:24:39.334Z,1728.00
2018-01-23T10:25:39.340Z,1768.00
2018-01-23T10:26:39.339Z,1816.00
2018-01-23T10:27:39.350Z,1904.00
2018-01-23T10:28:39.345Z,1996.00
2018-01-23T10:29:39.354Z,2080.00
2018-01-23T10:30:39.351Z,2112.00
2018-01-23T10:31:39.361Z,2116.00
2018-01-23T10:32:39.360Z,2128.00
2018-01-23T10:33:39.370Z,2148.00
2018-01-23T10:34:39.370Z,2136.00
2018-01-23T10:35:39.380Z,2112.00
2018-01-23T10:36:39.376Z,2096.00
2018-01-23T10:37:39.381Z,2052.00
2018-01-23T10:38:39.387Z,1956.00
2018-01-23T10:39:39.391Z,1864.00
2018-01-23T10:40:39.392Z,1876.00
2018-01-23T10:41:39.399Z,1968.00
2018-01-23T10:42:39.402Z,2080.00
2018-01-23T10:43:39.407Z,2132.00
2018-01-23T10:44:39.412Z,2168.00
2018-01-23T10:45:39.415Z,2196.00
2018-01-23T10:46:39.421Z,2180.00
2018-01-23T10:47:39.421Z,2168.00
2018-01-23T10:48:39.430Z,2232.00
2018-01-23T10:49:39.432Z,2344.00
2018-01-23T10:50:39.444Z,2544.00
2018-01-23T10:51:39.435Z,2832.00
2018-01-23T10:52:39.448Z,2928.00
2018-01-23T10:53:39.451Z,2844.00
2018-01-23T10:54:39.449Z,2820.00
2018-01-23T10:55:39.460Z,2740.00
2018-01-23T10:56:39.461Z,2644.00
2018-01-23T10:57:39.468Z,2476.00
2018-01-23T10:58:39.466Z,2376.00
2018-01-23T10:59:39.476Z,2228.00
2018-01-23T11:00:39.475Z,2156.00
2018-01-23T11:01:39.486Z,2152.00
2018-01-23T11:02:39.487Z,2064.00
2018-01-23T11:03:39.494Z,2028.00
2018-01-23T11:04:39.493Z,1980.00
2018-01-23T11:05:39.499Z,1984.00
2018-01-23T11:06:39.505Z,2016.00
2018-01-23T11:07:39.514Z,2044.00
2018-01-23T11:08:39.519Z,2024.00
2018-01-23T11:09:39.518Z,1988.00
2018-01-23T11:10:39.520Z,1936.00
2018-01-23T11:11:39.526Z,1952.00
2018-01-23T11:12:39.528Z,1972.00
2018-01-23T11:13:39.534Z,2004.00
2018-01-23T11:14:39.536Z,1964.00
2018-01-23T11:15:39.545Z,1916.00
2018-01-23T11:16:39.544Z,2000.00
2018-01-23T11:17:39.549Z,1996.00
2018-01-23T11:18:39.558Z,1892.00
2018-01-23T11:19:39.561Z,1824.00
2018-01-23T11:20:39.563Z,1788.00
2018-01-23T11:21:39.567Z,1840.00
2018-01-23T11:22:39.572Z,2016.00
2018-01-23T11:23:39.574Z,2188.00
2018-01-23T11:24:39.586Z,2304.00
2018-01-23T11:25:39.585Z,2332.00
2018-01-23T11:26:39.592Z,2268.00
2018-01-23T11:27:39.592Z,2156.00
2018-01-23T11:28:39.599Z,2044.00
2018-01-23T11:29:39.602Z,1968.00
2018-01-23T11:30:39.613Z,1864.00
2018-01-23T11:31:39.613Z,1752.00
2018-01-23T11:32:39.614Z,1672.00
2018-01-23T11:33:39.619Z,1716.00
2018-01-23T11:34:39.627Z,1836.00
2018-01-23T11:35:39.628Z,1908.00
2018-01-23T11:36:39.633Z,1956.00
2018-01-23T11:37:39.639Z,1968.00
2018-01-23T11:38:39.640Z,1956.00
2018-01-23T11:39:39.644Z,1976.00
2018-01-23T11:40:39.653Z,1936.00
2018-01-23T11:41:39.661Z,1944.00
2018-01-23T11:42:39.658Z,2000.00
2018-01-23T11:43:39.666Z,2072.00
2018-01-23T11:44:39.664Z,2124.00
2018-01-23T11:45:39.668Z,2236.00
2018-01-23T11:46:39.676Z,2744.00
2018-01-23T11:47:39.680Z,3952.00
2018-01-23T11:48:39.688Z,4760.00
2018-01-23T11:49:39.688Z,4672.00
2018-01-23T11:50:39.698Z,4492.00
2018-01-23T11:51:39.699Z,4216.00
2018-01-23T11:52:39.712Z,4296.00
2018-01-23T11:53:39.706Z,4204.00
2018-01-23T11:54:39.738Z,4120.00
2018-01-23T11:55:39.721Z,4020.00
2018-01-23T11:56:39.727Z,3956.00
2018-01-23T11:57:39.730Z,3976.00
2018-01-23T11:58:39.735Z,4116.00
2018-01-23T11:59:39.751Z,4100.00
2018-01-23T12:00:39.740Z,3992.00
2018-01-23T12:01:39.746Z,3832.00
2018-01-23T12:02:39.747Z,3340.00
2018-01-23T12:03:39.755Z,2892.00
2018-01-23T12:04:39.763Z,2940.00
2018-01-23T12:05:39.767Z,3016.00
2018-01-23T12:06:39.768Z,2924.00
2018-01-23T12:07:39.772Z,2520.00
2018-01-23T12:08:39.784Z,2012.00
2018-01-23T12:09:39.788Z,1660.00
2018-01-23T12:10:39.790Z,1444.00
2018-01-23T12:11:39.792Z,1292.00
2018-01-23T12:12:39.812Z,1260.00
2018-01-23T12:13:39.825Z,1348.00
2018-01-23T12:14:39.827Z,1496.00
2018-01-23T12:15:39.844Z,1672.00
2018-01-23T12:16:39.820Z,1792.00
2018-01-23T12:17:39.855Z,1792.00
2018-01-23T12:18:39.833Z,1840.00
2018-01-23T12:19:39.838Z,1872.00
2018-01-23T12:20:39.848Z,2160.00
2018-01-23T12:21:39.838Z,2544.00
2018-01-23T12:22:40.705Z,2912.00
2018-01-23T12:23:39.853Z,3268.00
2018-01-23T12:24:39.859Z,3564.00
2018-01-23T12:25:39.862Z,3592.00
2018-01-23T12:26:39.858Z,3384.00
2018-01-23T12:27:39.873Z,3240.00
2018-01-23T12:28:39.880Z,3224.00
2018-01-23T12:29:39.876Z,3320.00
2018-01-23T12:30:39.886Z,3404.00
2018-01-23T12:31:39.894Z,3276.00
2018-01-23T12:32:39.901Z,2980.00
2018-01-23T12:33:40.713Z,2724.00
2018-01-23T12:34:39.906Z,2384.00
2018-01-23T12:35:39.909Z,2120.00
2018-01-23T12:36:39.915Z,1928.00
2018-01-23T12:37:39.921Z,1816.00
2018-01-23T12:38:39.924Z,1748.00
2018-01-23T12:39:39.931Z,1716.00
2018-01-23T12:40:39.934Z,1716.00
2018-01-23T12:41:39.937Z,1732.00
2018-01-23T12:42:39.941Z,1848.00
2018-01-23T12:43:39.963Z,1944.00
2018-01-23T12:44:39.950Z,1988.00
2018-01-23T12:45:39.960Z,2068.00
2018-01-23T12:46:39.964Z,2104.00
2018-01-23T12:47:39.971Z,2116.00
2018-01-23T12:48:39.969Z,2076.00
2018-01-23T12:49:39.979Z,1988.00
2018-01-23T12:50:39.984Z,1944.00
2018-01-23T12:51:39.988Z,1976.00
2018-01-23T12:52:39.992Z,2104.00
2018-01-23T12:53:39.994Z,2260.00
2018-01-23T12:54:40.003Z,2360.00
2018-01-23T12:55:40.003Z,2488.00
2018-01-23T12:56:40.010Z,2536.00
2018-01-23T12:57:40.016Z,2540.00
2018-01-23T12:58:40.020Z,2496.00
2018-01-23T12:59:40.025Z,2468.00
2018-01-23T13:00:40.030Z,2456.00
2018-01-23T13:01:40.029Z,2340.00
2018-01-23T13:02:40.037Z,2296.00
2018-01-23T13:03:40.043Z,2344.00
2018-01-23T13:04:40.051Z,2384.00
2018-01-23T13:05:40.048Z,2376.00
2018-01-23T13:06:40.059Z,2352.00
2018-01-23T13:07:40.062Z,2336.00
2018-01-23T13:08:40.067Z,2308.00
2018-01-23T13:09:40.075Z,2360.00
2018-01-23T13:10:40.072Z,2368.00
2018-01-23T13:11:40.079Z,2420.00
2018-01-23T13:12:40.085Z,2444.00
2018-01-23T13:13:40.091Z,2500.00
2018-01-23T13:14:40.094Z,2396.00
2018-01-23T13:15:40.103Z,2348.00
2018-01-23T13:16:40.105Z,2340.00
2018-01-23T13:17:40.110Z,2352.00
2018-01-23T13:18:40.114Z,2360.00
2018-01-23T13:19:40.115Z,2312.00
2018-01-23T13:20:40.121Z,2336.00
2018-01-23T13:21:40.129Z,2276.00
2018-01-23T13:22:40.132Z,2128.00
2018-01-23T13:23:40.137Z,2032.00
2018-01-23T13:24:40.145Z,1892.00
2018-01-23T13:25:40.147Z,1764.00
2018-01-23T13:26:40.150Z,1652.00
2018-01-23T13:27:40.152Z,1544.00
2018-01-23T13:28:40.160Z,1520.00
2018-01-23T13:29:40.163Z,1552.00
2018-01-23T13:30:40.165Z,1720.00
2018-01-23T13:31:40.176Z,1912.00
2018-01-23T13:32:40.181Z,2028.00
2018-01-23T13:33:40.188Z,2208.00
2018-01-23T13:34:40.184Z,2328.00
2018-01-23T13:35:40.188Z,2436.00
2018-01-23T13:36:40.198Z,2548.00
2018-01-23T13:37:40.201Z,2684.00
2018-01-23T13:38:40.202Z,2860.00
2018-01-23T13:39:40.212Z,3036.00
2018-01-23T13:40:40.213Z,3108.00
2018-01-23T13:41:40.223Z,3080.00
2018-01-23T13:42:40.224Z,3064.00
2018-01-23T13:43:40.231Z,3036.00
2018-01-23T13:44:40.231Z,2932.00
2018-01-23T13:45:40.242Z,2804.00
2018-01-23T13:46:40.246Z,2656.00
2018-01-23T13:47:40.247Z,2512.00
2018-01-23T13:48:40.258Z,2448.00
2018-01-23T13:49:40.262Z,2348.00
2018-01-23T13:50:40.260Z,2316.00
2018-01-23T13:51:40.264Z,2220.00
2018-01-23T13:52:40.313Z,2120.00
2018-01-23T13:53:40.296Z,2024.00
2018-01-23T13:54:40.299Z,1952.00
2018-01-23T13:55:40.290Z,2008.00
2018-01-23T13:56:40.312Z,1964.00
2018-01-23T13:57:40.310Z,2036.00
2018-01-23T13:58:40.294Z,2052.00
2018-01-23T13:59:40.313Z,2028.00
2018-01-23T14:00:40.307Z,2048.00
2018-01-23T14:01:40.331Z,2080.00
2018-01-23T14:02:40.323Z,2128.00
2018-01-23T14:03:40.341Z,2208.00
2018-01-23T14:04:40.344Z,2240.00
2018-01-23T14:05:40.352Z,2280.00
2018-01-23T14:06:41.247Z,2352.00
2018-01-23T14:07:40.364Z,2416.00
2018-01-23T14:08:40.362Z,2300.00
2018-01-23T14:09:40.367Z,2200.00
2018-01-23T14:10:40.377Z,2124.00
2018-01-23T14:11:40.364Z,2060.00
2018-01-23T14:12:40.390Z,1972.00
2018-01-23T14:13:40.388Z,1940.00
2018-01-23T14:14:40.387Z,1904.00
2018-01-23T14:15:40.403Z,1912.00
2018-01-23T14:16:40.417Z,1896.00
2018-01-23T14:17:41.282Z,1848.00
2018-01-23T14:18:40.411Z,1832.00
2018-01-23T14:19:40.428Z,1808.00
2018-01-23T14:20:40.423Z,1784.00
2018-01-23T14:21:40.432Z,1748.00
2018-01-23T14:22:40.430Z,1704.00
2018-01-23T14:23:40.419Z,1652.00
2018-01-23T14:24:40.428Z,1640.00
2018-01-23T14:25:40.438Z,1600.00
2018-01-23T14:26:40.445Z,1564.00
2018-01-23T14:27:40.424Z,1528.00
2018-01-23T14:28:40.430Z,1512.00
2018-01-23T14:29:40.441Z,1508.00
2018-01-23T14:30:40.444Z,1480.00
2018-01-23T14:31:40.453Z,1452.00
2018-01-23T14:32:40.450Z,1416.00
2018-01-23T14:33:40.459Z,1408.00
2018-01-23T14:34:40.459Z,1380.00
2018-01-23T14:35:40.463Z,1364.00
2018-01-23T14:36:40.470Z,1352.00
2018-01-23T14:37:40.472Z,1328.00
2018-01-23T14:38:40.481Z,1312.00
2018-01-23T14:39:40.482Z,1288.00
2018-01-23T14:40:40.489Z,1260.00
2018-01-23T14:41:40.491Z,1204.00
2018-01-23T14:42:40.497Z,1124.00
2018-01-23T14:43:40.504Z,1048.00
2018-01-23T14:44:40.503Z,980.00
2018-01-23T14:45:40.511Z,936.00
2018-01-23T14:46:40.516Z,916.00
2018-01-23T14:47:40.519Z,900.00
2018-01-23T14:48:40.524Z,876.00